createdAt,value
2018-09-03T00:00:42.016Z,12.77
2018-09-03T00:03:10.386Z,14.00
2018-09-03T00:05:38.700Z,11.23
2018-09-03T00:08:07.173Z,11.90
2018-09-03T00:10:35.486Z,11.33
2018-09-03T00:13:03.797Z,12.90
2018-09-03T00:15:32.123Z,12.10
2018-09-03T00:18:00.451Z,12.30
2018-09-03T00:20:28.925Z,12.13
2018-09-03T00:22:57.276Z,12.13
2018-09-03T00:25:25.586Z,13.97
2018-09-03T00:27:53.929Z,12.57
2018-09-03T00:30:22.278Z,12.77
2018-09-03T00:32:55.715Z,12.53
2018-09-03T00:35:29.324Z,13.37
2018-09-03T00:39:00.619Z,13.37
2018-09-03T00:41:34.206Z,15.03
2018-09-03T00:44:07.851Z,12.57
2018-09-03T00:46:41.455Z,12.60
2018-09-03T00:49:09.774Z,12.77
2018-09-03T00:51:38.093Z,14.57
2018-09-03T00:54:06.442Z,12.77
2018-09-03T00:56:34.749Z,12.67
2018-09-03T00:59:03.066Z,11.57
2018-09-03T01:01:31.365Z,11.30
2018-09-03T01:03:59.679Z,13.03
2018-09-03T01:06:27.990Z,15.00
2018-09-03T01:08:56.318Z,14.33
2018-09-03T01:11:25.593Z,12.90
2018-09-03T01:13:54.781Z,13.60
2018-09-03T01:16:23.143Z,13.20
2018-09-03T01:18:54.892Z,12.63
2018-09-03T01:21:23.678Z,12.67
2018-09-03T01:23:52.319Z,13.77
2018-09-03T01:26:20.678Z,12.83
2018-09-03T01:28:48.973Z,13.40
2018-09-03T01:31:20.378Z,15.17
2018-09-03T01:33:53.143Z,13.87
2018-09-03T01:36:21.830Z,14.30
2018-09-03T01:38:50.165Z,13.17
2018-09-03T01:41:19.203Z,13.77
2018-09-03T01:43:48.010Z,12.77
2018-09-03T01:46:16.594Z,16.20
2018-09-03T01:48:44.999Z,13.93
2018-09-03T01:51:13.355Z,14.53
2018-09-03T01:53:41.654Z,15.90
2018-09-03T01:56:09.963Z,14.13
2018-09-03T01:58:38.283Z,14.33
2018-09-03T02:01:06.837Z,13.33
2018-09-03T02:03:35.469Z,14.17
2018-09-03T02:06:03.955Z,11.37
2018-09-03T02:08:32.500Z,15.87
2018-09-03T02:11:00.938Z,12.60
2018-09-03T02:13:30.413Z,14.17
2018-09-03T02:15:58.910Z,14.80
2018-09-03T02:18:27.509Z,12.33
2018-09-03T02:20:56.224Z,14.67
2018-09-03T02:23:24.785Z,15.83
2018-09-03T02:25:53.424Z,14.17
2018-09-03T02:28:21.944Z,11.77
2018-09-03T02:30:50.381Z,14.53
2018-09-03T02:33:18.759Z,12.90
2018-09-03T02:35:47.210Z,14.13
2018-09-03T02:38:15.567Z,11.90
2018-09-03T02:40:43.960Z,11.17
2018-09-03T02:43:12.321Z,12.50
2018-09-03T02:45:40.726Z,13.47
2018-09-03T02:48:09.135Z,10.57
2018-09-03T02:50:37.676Z,12.37
2018-09-03T02:53:06.106Z,12.20
2018-09-03T02:55:34.499Z,13.70
2018-09-03T02:58:02.850Z,13.23
2018-09-03T03:00:31.243Z,11.37
2018-09-03T03:02:59.741Z,12.53
2018-09-03T03:05:29.144Z,14.63
2018-09-03T03:07:57.902Z,11.57
2018-09-03T03:10:26.397Z,10.90
2018-09-03T03:12:54.724Z,11.80
2018-09-03T03:15:23.140Z,13.90
2018-09-03T03:17:51.515Z,13.43
2018-09-03T03:20:19.928Z,14.40
2018-09-03T03:22:48.349Z,11.23
2018-09-03T03:25:16.743Z,13.20
2018-09-03T03:27:45.115Z,13.60
2018-09-03T03:30:13.517Z,12.97
2018-09-03T03:32:41.943Z,15.77
2018-09-03T03:35:11.684Z,13.27
2018-09-03T03:37:44.191Z,12.40
2018-09-03T03:40:12.665Z,13.10
2018-09-03T03:42:41.024Z,14.43
2018-09-03T03:45:09.518Z,14.17
2018-09-03T03:47:37.975Z,12.90
2018-09-03T03:50:06.488Z,12.73
2018-09-03T03:52:34.862Z,14.53
2018-09-03T03:55:03.643Z,13.67
2018-09-03T03:57:32.014Z,12.20
2018-09-03T04:00:00.495Z,14.07
2018-09-03T04:02:28.969Z,13.37
2018-09-03T04:04:57.369Z,13.13
2018-09-03T04:07:25.819Z,15.97
2018-09-03T04:09:54.219Z,14.53
2018-09-03T04:12:22.595Z,12.93
2018-09-03T04:14:51.005Z,12.17
2018-09-03T04:17:19.402Z,12.87
2018-09-03T04:19:51.806Z,13.33
2018-09-03T04:22:20.172Z,13.97
2018-09-03T04:24:48.523Z,14.43
2018-09-03T04:27:16.941Z,12.93
2018-09-03T04:29:45.318Z,15.10
2018-09-03T04:32:13.749Z,14.13
2018-09-03T04:34:42.130Z,14.10
2018-09-03T04:37:10.522Z,15.63
2018-09-03T04:39:38.912Z,14.67
2018-09-03T04:42:07.313Z,14.37
2018-09-03T04:44:35.672Z,15.10
2018-09-03T04:47:04.132Z,15.70
2018-09-03T04:49:32.504Z,14.10
2018-09-03T04:52:00.937Z,15.93
2018-09-03T04:54:29.434Z,17.33
2018-09-03T04:56:57.825Z,15.80
2018-09-03T04:59:26.205Z,15.50
2018-09-03T05:01:54.593Z,17.73
2018-09-03T05:04:22.968Z,15.37
2018-09-03T05:06:51.447Z,16.60
2018-09-03T05:09:19.947Z,17.93
2018-09-03T05:11:48.637Z,16.37
2018-09-03T05:14:17.136Z,15.80
2018-09-03T05:16:45.556Z,14.90
2018-09-03T05:19:13.988Z,13.33
2018-09-03T05:21:42.540Z,15.23
2018-09-03T05:24:10.977Z,15.03
2018-09-03T05:26:39.421Z,16.23
2018-09-03T05:29:07.971Z,15.40
2018-09-03T05:31:36.366Z,15.17
2018-09-03T05:34:04.808Z,14.00
2018-09-03T05:36:33.227Z,15.20
2018-09-03T05:39:01.653Z,15.30
2018-09-03T05:41:30.105Z,15.33
2018-09-03T05:43:58.524Z,15.33
2018-09-03T05:46:27.042Z,15.37
2018-09-03T05:48:55.428Z,15.13
2018-09-03T05:51:23.944Z,15.83
2018-09-03T05:53:52.391Z,15.17
2018-09-03T05:56:20.808Z,15.23
2018-09-03T05:58:49.258Z,14.77
2018-09-03T06:01:17.726Z,14.93
2018-09-03T06:03:46.145Z,13.70
2018-09-03T06:06:14.638Z,15.70
2018-09-03T06:08:43.088Z,14.53
2018-09-03T06:11:11.709Z,15.27
2018-09-03T06:13:41.427Z,14.30
2018-09-03T06:16:09.909Z,13.47
2018-09-03T06:18:38.615Z,13.90
2018-09-03T06:21:07.521Z,14.73
2018-09-03T06:23:36.025Z,12.37
2018-09-03T06:26:04.501Z,12.07
2018-09-03T06:28:32.934Z,12.50
2018-09-03T06:31:01.413Z,15.00
2018-09-03T06:33:29.813Z,13.13
2018-09-03T06:35:58.432Z,12.67
2018-09-03T06:38:27.089Z,12.70
2018-09-03T06:40:55.723Z,13.20
2018-09-03T06:43:24.588Z,13.07
2018-09-03T06:45:53.240Z,13.37
2018-09-03T06:48:21.913Z,13.73
2018-09-03T06:50:50.359Z,14.78
2018-09-03T06:53:19.013Z,14.30
2018-09-03T06:55:47.405Z,12.50
2018-09-03T06:58:15.827Z,12.30
2018-09-03T07:00:44.251Z,13.53
2018-09-03T07:03:12.701Z,12.43
2018-09-03T07:05:41.222Z,12.73
2018-09-03T07:08:09.628Z,13.03
2018-09-03T07:10:38.044Z,12.03
2018-09-03T07:13:07.554Z,13.40
2018-09-03T07:15:36.860Z,12.15
2018-09-03T07:18:05.677Z,12.97
2018-09-03T07:20:34.406Z,13.43
2018-09-03T07:23:03.098Z,13.68
2018-09-03T07:25:31.553Z,13.03
2018-09-03T07:28:00.058Z,13.83
2018-09-03T07:30:28.587Z,13.25
2018-09-03T07:32:57.025Z,12.55
2018-09-03T07:35:25.441Z,13.37
2018-09-03T07:37:53.863Z,12.45
2018-09-03T07:40:22.325Z,12.63
2018-09-03T07:42:50.760Z,13.05
2018-09-03T07:45:19.198Z,13.68
2018-09-03T07:47:47.591Z,13.75
2018-09-03T07:50:16.012Z,14.75
2018-09-03T07:52:44.444Z,14.03
2018-09-03T07:55:12.820Z,14.13
2018-09-03T07:57:41.211Z,12.90
2018-09-03T08:00:09.999Z,13.85
2018-09-03T08:02:38.412Z,13.70
2018-09-03T08:05:07.221Z,14.17
2018-09-03T08:07:35.689Z,14.37
2018-09-03T08:10:04.148Z,12.73
2018-09-03T08:12:32.573Z,12.98
2018-09-03T08:15:00.967Z,13.08
2018-09-03T08:17:29.348Z,13.03
2018-09-03T08:19:57.760Z,12.07
2018-09-03T08:22:26.190Z,12.97
2018-09-03T08:24:54.581Z,13.07
2018-09-03T08:27:23.086Z,13.62
2018-09-03T08:29:51.530Z,13.25
2018-09-03T08:32:19.979Z,14.05
2018-09-03T08:34:48.412Z,13.08
2018-09-03T08:37:16.862Z,14.38
2018-09-03T08:39:45.991Z,13.90
2018-09-03T08:42:14.370Z,13.95
2018-09-03T08:44:42.797Z,13.38
2018-09-03T08:47:11.170Z,14.28
2018-09-03T08:49:39.559Z,14.83
2018-09-03T08:52:08.084Z,14.25
2018-09-03T08:54:36.557Z,14.47
2018-09-03T08:57:04.956Z,14.30
2018-09-03T08:59:33.364Z,16.55
2018-09-03T09:02:01.721Z,15.05
2018-09-03T09:04:30.207Z,17.52
2018-09-03T09:06:59.765Z,15.38
2018-09-03T09:09:28.165Z,17.32
2018-09-03T09:11:56.572Z,16.37
2018-09-03T09:14:24.963Z,16.90
2018-09-03T09:16:53.357Z,19.02
2018-09-03T09:19:21.798Z,19.32
2018-09-03T09:21:50.317Z,20.10
2018-09-03T09:24:18.703Z,19.75
2018-09-03T09:26:47.070Z,19.15
2018-09-03T09:29:15.525Z,22.32
2018-09-03T09:31:46.358Z,23.22
2018-09-03T09:34:14.791Z,22.67
2018-09-03T09:36:47.781Z,22.52
2018-09-03T09:39:16.276Z,25.50
2018-09-03T09:47:22.889Z,26.25
2018-09-03T09:49:51.626Z,24.65
2018-09-03T09:52:20.108Z,24.33
2018-09-03T09:54:48.693Z,25.10
2018-09-03T09:57:17.593Z,28.00
2018-09-03T09:59:46.091Z,27.85
2018-09-03T10:02:17.197Z,25.37
2018-09-03T10:04:45.717Z,31.02
2018-09-03T10:07:14.217Z,33.70
2018-09-03T10:09:42.735Z,35.55
2018-09-03T10:12:11.183Z,33.38
2018-09-03T10:14:42.850Z,35.50
2018-09-03T10:17:11.455Z,36.88
2018-09-03T10:19:41.721Z,35.75
2018-09-03T10:22:09.981Z,32.35
2018-09-03T10:24:38.595Z,40.45
2018-09-03T10:27:07.034Z,41.33
2018-09-03T10:32:20.252Z,42.37
2018-09-03T10:34:51.217Z,40.35
2018-09-03T10:37:21.988Z,37.73
2018-09-03T10:39:58.014Z,38.17
2018-09-03T10:42:53.415Z,37.70
2018-09-03T10:45:24.202Z,38.92
2018-09-03T10:47:55.178Z,40.20
2018-09-03T10:53:15.200Z,43.90
2018-09-03T10:55:45.498Z,41.53
2018-09-03T10:58:16.169Z,43.40
2018-09-03T11:00:46.729Z,44.15
2018-09-03T11:03:27.365Z,44.67
2018-09-03T11:06:08.071Z,43.85
2018-09-03T11:08:47.630Z,40.95
2018-09-03T11:11:16.121Z,45.17
2018-09-03T11:13:44.502Z,47.65
2018-09-03T11:16:14.037Z,49.25
2018-09-03T11:18:42.412Z,46.28
2018-09-03T11:21:10.784Z,46.98
2018-09-03T11:23:42.437Z,51.10
2018-09-03T11:26:10.953Z,47.43
2018-09-03T11:28:39.541Z,53.33
2018-09-03T11:31:07.923Z,46.80
2018-09-03T11:33:36.328Z,49.18
2018-09-03T11:36:13.099Z,48.30
2018-09-03T11:38:41.641Z,47.60
2018-09-03T11:41:10.080Z,46.88
2018-09-03T11:43:38.497Z,51.08
2018-09-03T11:46:08.356Z,52.65
2018-09-03T11:48:37.160Z,47.67
2018-09-03T11:51:10.447Z,49.30
2018-09-03T11:53:38.854Z,52.70
2018-09-03T11:56:07.270Z,49.85
2018-09-03T11:58:35.623Z,48.80
2018-09-03T12:01:04.164Z,48.90
2018-09-03T12:06:09.012Z,45.85
2018-09-03T12:08:46.323Z,45.15
2018-09-03T12:11:15.075Z,45.55
2018-09-03T12:13:44.540Z,45.55
2018-09-03T12:16:17.275Z,45.10
2018-09-03T12:18:47.125Z,43.85
2018-09-03T12:21:18.439Z,43.83
2018-09-03T12:23:47.871Z,45.28
2018-09-03T12:26:34.754Z,46.70
2018-09-03T12:29:07.190Z,42.70
2018-09-03T12:31:36.618Z,43.35
2018-09-03T12:34:09.856Z,42.48
2018-09-03T12:36:39.094Z,42.85
2018-09-03T12:39:23.762Z,44.98
2018-09-03T12:41:52.680Z,47.62
2018-09-03T12:44:36.110Z,43.25
2018-09-03T12:47:07.926Z,43.85
2018-09-03T12:49:39.206Z,44.40
2018-09-03T12:52:11.238Z,41.68
2018-09-03T12:54:51.354Z,45.98
2018-09-03T12:57:25.908Z,42.23
2018-09-03T13:00:18.190Z,41.83
2018-09-03T13:03:01.140Z,39.90
2018-09-03T13:06:07.113Z,42.70
2018-09-03T13:08:47.922Z,43.58
2018-09-03T13:11:45.765Z,43.63
2018-09-03T13:14:17.329Z,44.63
2018-09-03T13:16:52.220Z,42.27
2018-09-03T13:22:27.294Z,43.40
2018-09-03T13:25:02.577Z,46.70
2018-09-03T13:30:24.514Z,43.65
2018-09-03T13:35:43.034Z,44.83
2018-09-03T13:38:14.755Z,44.08
2018-09-03T13:40:45.340Z,44.50
2018-09-03T13:43:19.855Z,42.35
2018-09-03T13:45:52.433Z,44.18
2018-09-03T13:48:46.666Z,48.85
2018-09-03T13:51:28.723Z,45.92
2018-09-03T15:34:44.193Z,50.75
2018-09-03T15:37:13.312Z,48.95
2018-09-03T15:39:41.603Z,53.50
2018-09-03T15:42:09.876Z,48.05
2018-09-03T15:44:38.214Z,50.75
2018-09-03T15:47:06.530Z,51.13
2018-09-03T15:49:34.947Z,53.25
2018-09-03T15:52:03.264Z,49.93
2018-09-03T15:54:31.700Z,50.80
2018-09-03T15:56:59.980Z,47.78
2018-09-03T15:59:28.269Z,46.30
2018-09-03T16:01:56.613Z,47.00
2018-09-03T16:04:25.763Z,50.05
2018-09-03T16:06:54.022Z,47.90
2018-09-03T16:09:22.267Z,49.95
2018-09-03T16:11:50.561Z,53.28
2018-09-03T16:14:18.913Z,50.92
2018-09-03T16:16:47.184Z,52.20
2018-09-03T16:19:15.453Z,49.85
2018-09-03T16:21:43.765Z,51.73
2018-09-03T16:24:12.033Z,51.35
2018-09-03T16:26:40.285Z,50.12
2018-09-03T16:29:08.579Z,49.73
2018-09-03T16:31:36.838Z,51.30
2018-09-03T16:34:05.073Z,49.75
2018-09-03T16:36:33.356Z,48.63
2018-09-03T16:39:01.677Z,48.50
2018-09-03T16:41:30.408Z,48.63
2018-09-03T16:43:58.700Z,49.08
2018-09-03T16:46:27.109Z,47.45
2018-09-03T16:48:55.622Z,46.35
2018-09-03T16:51:25.344Z,44.20
2018-09-03T16:53:53.664Z,48.92
2018-09-03T16:56:32.261Z,47.05
2018-09-03T16:59:00.705Z,51.60
2018-09-03T17:01:29.188Z,47.90
2018-09-03T17:03:57.384Z,53.48
2018-09-03T17:06:25.681Z,54.13
2018-09-03T17:08:54.146Z,51.90
2018-09-03T17:11:22.405Z,50.65
2018-09-03T17:13:50.732Z,50.52
2018-09-03T17:16:19.043Z,52.75
2018-09-03T17:18:47.417Z,52.90
2018-09-03T17:21:15.701Z,55.23
2018-09-03T17:23:44.157Z,53.35
2018-09-03T17:26:12.522Z,58.52
2018-09-03T17:28:40.898Z,54.80
2018-09-03T17:31:09.164Z,55.25
2018-09-03T17:33:37.526Z,57.33
2018-09-03T17:36:06.065Z,52.93
2018-09-03T17:38:34.668Z,56.85
2018-09-03T17:41:03.039Z,57.98
2018-09-03T17:43:31.602Z,58.40
2018-09-03T17:45:59.920Z,57.48
2018-09-03T17:48:28.266Z,58.92
2018-09-03T17:50:56.732Z,55.03
2018-09-03T17:53:25.228Z,53.30
2018-09-03T17:55:54.200Z,58.42
2018-09-03T17:58:22.508Z,57.40
2018-09-03T18:00:50.865Z,59.23
2018-09-03T18:03:19.241Z,58.98
2018-09-03T18:05:47.793Z,58.52
2018-09-03T18:08:16.106Z,61.02
2018-09-03T18:10:46.617Z,62.35
2018-09-03T18:13:15.169Z,56.28
2018-09-03T18:15:43.553Z,52.53
2018-09-03T18:18:12.653Z,54.50
2018-09-03T18:20:40.984Z,55.15
2018-09-03T18:23:09.294Z,57.08
2018-09-03T18:25:39.233Z,58.55
2018-09-03T18:28:07.693Z,54.60
2018-09-03T18:30:36.016Z,54.65
2018-09-03T18:33:04.412Z,52.00
2018-09-03T18:35:32.942Z,54.63
2018-09-03T18:38:01.568Z,55.52
2018-09-03T18:40:29.813Z,57.50
2018-09-03T18:42:58.153Z,62.88
2018-09-03T18:45:26.393Z,63.28
2018-09-03T18:47:54.866Z,62.13
2018-09-03T18:50:23.145Z,64.47
2018-09-03T18:52:51.527Z,62.20
2018-09-03T18:55:19.862Z,62.23
2018-09-03T18:57:48.602Z,58.92
2018-09-03T19:00:16.952Z,58.00
2018-09-03T19:02:45.695Z,61.35
2018-09-03T19:05:13.958Z,60.33
2018-09-03T19:07:42.342Z,55.00
2018-09-03T19:10:10.644Z,55.80
2018-09-03T19:12:39.211Z,53.00
2018-09-03T19:15:07.891Z,54.65
2018-09-03T19:17:36.284Z,51.68
2018-09-03T19:20:04.638Z,52.33
2018-09-03T19:22:32.936Z,50.95
2018-09-03T19:25:01.357Z,53.60
2018-09-03T19:27:30.078Z,55.50
2018-09-03T19:29:58.529Z,49.63
2018-09-03T19:32:27.019Z,50.05
2018-09-03T19:34:55.347Z,51.53
2018-09-03T19:37:23.762Z,53.05
2018-09-03T19:39:52.059Z,53.00
2018-09-03T19:42:20.716Z,51.48
2018-09-03T19:44:49.029Z,49.30
2018-09-03T19:47:17.418Z,53.80
2018-09-03T19:49:45.663Z,48.65
2018-09-03T19:52:14.267Z,48.92
2018-09-03T19:54:42.721Z,48.23
2018-09-03T19:57:11.398Z,51.37
2018-09-03T19:59:41.078Z,49.23
2018-09-03T20:02:09.480Z,49.93
2018-09-03T20:04:37.801Z,50.60
2018-09-03T20:07:06.393Z,47.57
2018-09-03T20:09:35.198Z,48.98
2018-09-03T20:12:03.474Z,51.08
2018-09-03T20:14:31.805Z,52.50
2018-09-03T20:17:00.122Z,50.13
2018-09-03T20:19:28.466Z,53.10
2018-09-03T20:21:57.132Z,51.23
2018-09-03T20:24:25.500Z,48.83
2018-09-03T20:26:53.759Z,49.73
2018-09-03T20:29:22.066Z,47.97
2018-09-03T20:31:53.172Z,50.37
2018-09-03T20:34:21.456Z,50.03
2018-09-03T20:36:49.796Z,47.20
2018-09-03T20:39:18.424Z,48.20
2018-09-03T20:41:46.744Z,49.87
2018-09-03T20:44:16.289Z,48.87
2018-09-03T20:46:44.657Z,51.63
2018-09-03T20:49:13.397Z,53.03
2018-09-03T20:51:41.836Z,52.27
2018-09-03T20:54:10.094Z,52.80
2018-09-03T20:56:38.363Z,55.10
2018-09-03T20:59:06.633Z,50.27
2018-09-03T21:01:34.973Z,60.10
2018-09-03T21:04:03.215Z,52.37
2018-09-03T21:06:31.520Z,54.13
2018-09-03T21:08:59.801Z,52.60
2018-09-03T21:11:28.228Z,56.63
2018-09-03T21:13:56.484Z,54.30
2018-09-03T21:16:24.805Z,54.80
2018-09-03T21:18:53.171Z,57.47
2018-09-03T21:21:21.481Z,55.57
2018-09-03T21:23:49.715Z,52.57
2018-09-03T21:26:18.022Z,53.03
2018-09-03T21:28:46.290Z,54.77
2018-09-03T21:31:14.565Z,53.97
2018-09-03T21:33:42.858Z,58.13
2018-09-03T21:36:11.122Z,55.77
2018-09-03T21:38:39.415Z,54.73
2018-09-03T21:41:07.753Z,51.33
2018-09-03T21:43:36.022Z,56.13
2018-09-03T21:46:04.338Z,54.53
2018-09-03T21:48:32.609Z,50.83
2018-09-03T21:51:00.886Z,54.47
2018-09-03T21:53:29.237Z,51.40
2018-09-03T21:55:57.492Z,56.03
2018-09-03T21:58:25.789Z,50.87
2018-09-03T22:00:54.012Z,54.67
2018-09-03T22:03:22.357Z,54.73
2018-09-03T22:05:50.681Z,55.23
2018-09-03T22:08:18.942Z,54.23
2018-09-03T22:10:47.198Z,54.47
2018-09-03T22:13:15.554Z,49.67
2018-09-03T22:15:43.816Z,51.63
2018-09-03T22:18:12.486Z,52.97
2018-09-03T22:20:40.889Z,53.13
2018-09-03T22:23:09.409Z,52.90
2018-09-03T22:25:37.923Z,51.63
2018-09-03T22:28:06.425Z,52.53
2018-09-03T22:30:34.792Z,53.47
2018-09-03T22:33:03.093Z,52.83
2018-09-03T22:35:31.419Z,51.93
2018-09-03T22:37:59.821Z,51.23
2018-09-03T22:40:28.146Z,54.20
2018-09-03T22:42:56.512Z,50.60
2018-09-03T22:45:24.819Z,54.47
2018-09-03T22:47:53.174Z,52.87
2018-09-03T22:50:21.511Z,55.97
2018-09-03T22:52:49.831Z,52.43
2018-09-03T22:55:18.138Z,51.37
2018-09-03T22:57:46.471Z,50.40
2018-09-03T23:00:14.798Z,51.17
2018-09-03T23:02:43.693Z,51.40
2018-09-03T23:05:12.643Z,52.27
2018-09-03T23:07:41.012Z,52.40
2018-09-03T23:10:09.985Z,54.30
2018-09-03T23:12:38.327Z,53.97
2018-09-03T23:15:07.400Z,55.43
2018-09-03T23:17:35.744Z,53.57
2018-09-03T23:20:04.095Z,50.23
2018-09-03T23:22:32.426Z,50.63
2018-09-03T23:25:00.743Z,48.13
2018-09-03T23:27:29.090Z,52.50
2018-09-03T23:29:57.780Z,52.97
2018-09-03T23:32:26.126Z,53.93
2018-09-03T23:34:54.476Z,58.63
2018-09-03T23:37:22.827Z,56.87
2018-09-03T23:39:51.231Z,51.70
2018-09-03T23:42:19.872Z,54.03
2018-09-03T23:44:48.226Z,55.20
2018-09-03T23:47:16.652Z,57.20
2018-09-03T23:49:45.109Z,53.70
2018-09-03T23:52:13.405Z,52.43
2018-09-03T23:54:41.818Z,52.43
2018-09-03T23:57:10.327Z,54.07
2018-09-03T23:59:38.708Z,55.10
